Time;durP1;ratioP1;P1;durP2;ratioP2;P2;SDS_P1;SDS_P2;PMS_P1;PMS_P2;Temp;Humidity;BMP_temperature;BMP_pressure;BME280_temperature;BME280_humidity;BME280_pressure;Samples;Min_cycle;Max_cycle;Signal;HPM_P1;HPM_P2
2024/01/28 00:00:38;;;;;;;17.77;14.00;;;2.20;99.90;;;;;;5095234;28;20448;-76
2024/01/28 00:03:07;;;;;;;16.70;12.57;;;2.20;99.90;;;;;;5096402;28;20463;-76
2024/01/28 00:05:36;;;;;;;21.97;13.97;;;2.20;99.90;;;;;;5096641;28;20434;-76
2024/01/28 00:08:05;;;;;;;22.07;15.77;;;2.20;99.90;;;;;;5096804;28;20468;-76
2024/01/28 00:10:35;;;;;;;20.20;15.67;;;2.20;99.90;;;;;;5095561;28;20547;-76
2024/01/28 00:13:04;;;;;;;17.73;12.60;;;2.20;99.90;;;;;;5096796;28;20992;-76
2024/01/28 00:15:32;;;;;;;18.73;13.40;;;2.20;99.90;;;;;;5094935;28;20493;-76
2024/01/28 00:18:00;;;;;;;17.50;12.23;;;2.20;99.90;;;;;;5096194;28;20439;-76
2024/01/28 00:20:29;;;;;;;19.60;13.60;;;2.20;99.90;;;;;;5094847;28;20451;-76
2024/01/28 00:22:57;;;;;;;14.83;12.77;;;2.10;99.90;;;;;;5094721;28;20509;-76
2024/01/28 00:25:26;;;;;;;15.20;12.27;;;2.10;99.90;;;;;;5094715;28;20482;-76
2024/01/28 00:27:55;;;;;;;20.57;13.17;;;2.10;99.90;;;;;;5094613;28;20585;-76
2024/01/28 00:30:24;;;;;;;15.73;11.90;;;2.20;99.90;;;;;;5094632;28;20450;-76
2024/01/28 00:32:52;;;;;;;19.33;13.10;;;2.10;99.90;;;;;;5096236;28;21010;-76
2024/01/28 00:35:21;;;;;;;17.17;12.93;;;2.10;99.90;;;;;;5094524;28;20458;-76
2024/01/28 00:37:49;;;;;;;14.10;11.80;;;2.10;99.90;;;;;;5095750;28;20865;-76
2024/01/28 00:40:17;;;;;;;18.27;11.50;;;2.10;99.90;;;;;;5095180;28;20439;-76
2024/01/28 00:42:46;;;;;;;22.27;12.77;;;2.10;99.90;;;;;;5096001;28;20551;-76
2024/01/28 00:45:15;;;;;;;18.47;12.03;;;2.10;99.90;;;;;;5095664;28;20449;-76
2024/01/28 00:47:44;;;;;;;18.63;11.73;;;2.10;99.90;;;;;;5094112;28;21051;-76
2024/01/28 00:50:13;;;;;;;18.30;11.10;;;2.10;99.90;;;;;;5094299;28;20505;-76
2024/01/28 00:52:43;;;;;;;15.30;11.70;;;2.10;99.90;;;;;;5094164;28;20468;-76
2024/01/28 00:55:12;;;;;;;18.40;12.60;;;2.10;99.90;;;;;;5094240;28;20436;-76
2024/01/28 00:57:40;;;;;;;19.60;13.50;;;2.10;99.90;;;;;;5094174;28;20443;-76
2024/01/28 01:00:10;;;;;;;18.80;13.03;;;2.10;99.90;;;;;;5094070;28;20961;-76
2024/01/28 01:02:39;;;;;;;20.53;13.10;;;2.10;99.90;;;;;;5093978;28;20836;-76
2024/01/28 01:05:08;;;;;;;18.80;13.23;;;2.10;99.90;;;;;;5093968;28;20451;-76
2024/01/28 01:07:36;;;;;;;22.13;12.97;;;2.00;99.90;;;;;;5093871;28;20466;-76
2024/01/28 01:10:05;;;;;;;17.00;12.30;;;2.00;99.90;;;;;;5093836;28;20858;-76
2024/01/28 01:12:34;;;;;;;20.80;12.77;;;2.00;99.90;;;;;;5095035;28;20465;-76
2024/01/28 01:15:03;;;;;;;19.20;13.50;;;2.10;99.90;;;;;;5093754;28;20828;-76
2024/01/28 01:17:31;;;;;;;19.33;12.73;;;2.10;99.90;;;;;;5093771;28;20441;-76
2024/01/28 01:20:01;;;;;;;16.27;11.43;;;2.00;99.90;;;;;;5093708;28;20501;-76
2024/01/28 01:22:29;;;;;;;15.30;12.30;;;2.00;99.90;;;;;;5094797;28;21000;-76
2024/01/28 01:24:57;;;;;;;18.80;12.90;;;2.00;99.90;;;;;;5093550;28;20448;-76
2024/01/28 01:27:26;;;;;;;18.30;11.90;;;2.00;99.90;;;;;;5095000;28;20464;-76
2024/01/28 01:29:54;;;;;;;16.57;12.23;;;2.00;99.90;;;;;;5094685;28;20462;-76
2024/01/28 01:32:22;;;;;;;17.00;13.00;;;2.00;99.90;;;;;;5094895;28;20989;-76
2024/01/28 01:34:50;;;;;;;21.17;14.10;;;2.00;99.90;;;;;;5094596;28;20507;-76
2024/01/28 01:37:20;;;;;;;18.00;13.37;;;1.90;99.90;;;;;;5093314;28;20456;-77
2024/01/28 01:39:48;;;;;;;19.63;13.13;;;1.90;99.90;;;;;;5093233;28;20441;-76
2024/01/28 01:42:17;;;;;;;13.70;12.27;;;1.90;99.90;;;;;;5094767;28;20503;-77
2024/01/28 01:44:45;;;;;;;21.80;13.27;;;1.90;99.90;;;;;;5094854;28;20788;-76
2024/01/28 01:47:13;;;;;;;16.30;13.23;;;1.90;99.90;;;;;;5092885;28;20493;-76
2024/01/28 01:49:43;;;;;;;16.60;13.13;;;1.80;99.90;;;;;;5093127;28;20448;-77
2024/01/28 01:52:12;;;;;;;19.70;14.00;;;1.80;99.90;;;;;;5093339;28;20442;-76
2024/01/28 01:54:41;;;;;;;20.27;14.60;;;1.80;99.90;;;;;;5094325;28;20520;-77
2024/01/28 01:57:10;;;;;;;17.47;13.80;;;1.70;99.90;;;;;;5094297;28;20481;-76
2024/01/28 01:59:39;;;;;;;19.27;14.40;;;1.70;99.90;;;;;;5094288;28;20432;-76
2024/01/28 02:02:10;;;;;;;21.80;15.07;;;1.70;99.90;;;;;;5092784;28;20877;-76
2024/01/28 02:04:38;;;;;;;20.40;15.47;;;1.70;99.90;;;;;;5092891;28;20438;-76
2024/01/28 02:07:07;;;;;;;23.23;16.43;;;1.60;99.90;;;;;;5092876;28;20448;-76
2024/01/28 02:09:36;;;;;;;24.77;16.23;;;1.60;99.90;;;;;;5092746;28;20535;-76
2024/01/28 02:12:07;;;;;;;20.93;16.63;;;1.60;99.90;;;;;;5094061;28;20464;-77
2024/01/28 02:14:35;;;;;;;19.63;14.33;;;1.60;99.90;;;;;;5094552;28;20427;-77
2024/01/28 02:17:03;;;;;;;17.00;14.00;;;1.60;99.90;;;;;;5092672;28;20818;-76
2024/01/28 02:19:31;;;;;;;19.00;15.30;;;1.60;99.90;;;;;;5092575;28;20981;-76
2024/01/28 02:22:00;;;;;;;26.53;15.33;;;1.50;99.90;;;;;;5093840;28;20435;-77
2024/01/28 02:24:29;;;;;;;20.63;13.63;;;1.50;99.90;;;;;;5094132;28;20875;-77
2024/01/28 02:26:58;;;;;;;19.10;14.10;;;1.50;99.90;;;;;;5094612;28;20845;-77
2024/01/28 02:29:26;;;;;;;20.07;13.43;;;1.50;99.90;;;;;;5092460;28;20558;-77
2024/01/28 02:31:54;;;;;;;20.70;12.93;;;1.50;99.90;;;;;;5093657;28;20462;-76
2024/01/28 02:34:23;;;;;;;28.03;15.03;;;1.40;99.90;;;;;;5093578;28;20877;-76
2024/01/28 02:36:51;;;;;;;18.33;13.77;;;1.40;99.90;;;;;;5093848;28;20537;-77
2024/01/28 02:39:19;;;;;;;18.93;13.73;;;1.40;99.90;;;;;;5092267;28;20448;-76
2024/01/28 02:41:49;;;;;;;22.20;15.43;;;1.40;99.90;;;;;;5092280;28;20465;-76
2024/01/28 02:44:17;;;;;;;20.70;15.10;;;1.40;99.90;;;;;;5093479;28;21027;-76
2024/01/28 02:46:45;;;;;;;19.20;15.13;;;1.40;99.90;;;;;;5092046;28;20938;-77
2024/01/28 02:49:13;;;;;;;17.53;14.80;;;1.40;99.90;;;;;;5093852;28;20466;-76
2024/01/28 02:51:44;;;;;;;20.57;15.90;;;1.30;99.90;;;;;;5092031;28;20823;-76
2024/01/28 02:54:13;;;;;;;21.67;15.50;;;1.30;99.90;;;;;;5093400;28;20460;-77
2024/01/28 02:56:42;;;;;;;18.67;13.80;;;1.30;99.90;;;;;;5093626;28;20492;-77
2024/01/28 02:59:12;;;;;;;21.70;15.03;;;1.30;99.90;;;;;;5093383;28;20529;-77
2024/01/28 03:01:46;;;;;;;18.67;15.80;;;1.30;99.90;;;;;;5092290;28;20937;-76
2024/01/28 03:04:14;;;;;;;20.60;17.40;;;1.30;99.90;;;;;;5098644;28;20529;-77
2024/01/28 03:06:43;;;;;;;23.13;16.73;;;1.20;99.90;;;;;;5098755;28;20453;-77
2024/01/28 03:09:13;;;;;;;22.20;15.33;;;1.20;99.90;;;;;;5098660;28;20472;-77
2024/01/28 03:11:41;;;;;;;22.57;15.40;;;1.20;99.90;;;;;;5099899;28;20529;-77
2024/01/28 03:14:11;;;;;;;21.57;15.40;;;1.20;99.90;;;;;;5098546;28;20576;-77
2024/01/28 03:16:40;;;;;;;22.17;16.83;;;1.10;99.90;;;;;;5100548;28;20418;-76
2024/01/28 03:19:08;;;;;;;25.63;17.47;;;1.10;99.90;;;;;;5100161;28;20434;-76
2024/01/28 03:21:36;;;;;;;25.00;18.73;;;1.10;99.90;;;;;;5098603;28;20997;-76
2024/01/28 03:24:05;;;;;;;21.70;17.80;;;1.10;99.90;;;;;;5098478;28;20462;-77
2024/01/28 03:26:34;;;;;;;24.97;18.17;;;1.00;99.90;;;;;;5098533;28;20455;-77
2024/01/28 03:29:02;;;;;;;22.77;18.43;;;1.00;99.90;;;;;;5100013;28;20472;-77
2024/01/28 03:31:32;;;;;;;24.97;17.73;;;1.00;99.90;;;;;;5099763;28;20495;-77
2024/01/28 03:34:00;;;;;;;19.77;16.90;;;1.00;99.90;;;;;;5098295;28;20534;-77
2024/01/28 03:36:29;;;;;;;23.60;17.00;;;1.00;99.90;;;;;;5099704;28;20434;-76
2024/01/28 03:38:57;;;;;;;22.97;17.63;;;1.00;99.90;;;;;;5099690;28;20434;-77
2024/01/28 03:41:26;;;;;;;23.10;18.13;;;1.00;99.90;;;;;;5098682;28;20898;-77
2024/01/28 03:43:54;;;;;;;22.20;19.27;;;1.00;99.90;;;;;;5098351;28;20515;-77
2024/01/28 03:46:22;;;;;;;24.67;18.43;;;1.00;99.90;;;;;;5098221;28;20498;-76
2024/01/28 03:48:52;;;;;;;23.10;17.77;;;1.00;99.90;;;;;;5098293;28;20471;-77
2024/01/28 03:51:20;;;;;;;25.50;19.23;;;0.90;99.90;;;;;;5100195;28;20999;-77
2024/01/28 03:53:48;;;;;;;16.43;14.73;;;0.90;99.90;;;;;;5098361;28;20469;-77
2024/01/28 03:56:17;;;;;;;21.23;18.00;;;0.90;99.90;;;;;;5099558;28;20799;-76
2024/01/28 03:58:45;;;;;;;20.87;18.57;;;0.90;99.90;;;;;;5098274;28;20451;-77
2024/01/28 04:01:14;;;;;;;24.40;18.07;;;0.90;99.90;;;;;;5098271;28;20979;-77
2024/01/28 04:03:42;;;;;;;28.40;18.10;;;0.90;99.90;;;;;;5099434;28;20539;-77
2024/01/28 04:06:12;;;;;;;23.30;18.53;;;0.90;99.90;;;;;;5098242;28;20443;-77
2024/01/28 04:08:40;;;;;;;21.50;17.53;;;0.90;99.90;;;;;;5098131;28;20811;-77
2024/01/28 04:11:09;;;;;;;24.07;20.17;;;0.90;99.90;;;;;;5098090;28;20439;-77
2024/01/28 04:13:37;;;;;;;20.43;17.63;;;0.90;99.90;;;;;;5096682;28;20886;-76
2024/01/28 04:16:05;;;;;;;27.40;19.77;;;0.90;99.90;;;;;;5094562;28;20490;-77
2024/01/28 04:18:38;;;;;;;25.93;18.10;;;0.90;99.90;;;;;;5096171;28;20425;-76
2024/01/28 04:21:06;;;;;;;24.13;18.83;;;0.80;99.90;;;;;;5096124;28;20512;-76
2024/01/28 04:23:36;;;;;;;24.43;18.30;;;0.80;99.90;;;;;;5094703;28;20471;-77
2024/01/28 04:26:04;;;;;;;22.00;17.13;;;0.80;99.90;;;;;;5094703;28;20856;-77
2024/01/28 04:28:32;;;;;;;26.17;18.60;;;0.80;99.90;;;;;;5094709;28;20439;-77
2024/01/28 04:31:02;;;;;;;23.70;18.20;;;0.80;99.90;;;;;;5094511;28;20510;-77
2024/01/28 04:33:31;;;;;;;22.40;18.30;;;0.80;99.90;;;;;;5094537;28;20460;-77
2024/01/28 04:35:59;;;;;;;19.63;16.73;;;0.70;99.90;;;;;;5095818;28;20565;-77
2024/01/28 04:38:27;;;;;;;24.47;19.83;;;0.70;99.90;;;;;;5095268;28;20444;-76
2024/01/28 04:40:57;;;;;;;21.63;17.97;;;0.70;99.90;;;;;;5095426;28;20436;-77
2024/01/28 04:43:25;;;;;;;29.73;19.90;;;0.70;99.90;;;;;;5095577;28;20559;-77
2024/01/28 04:45:53;;;;;;;20.87;16.60;;;0.70;99.90;;;;;;5094393;28;20481;-77
2024/01/28 04:48:22;;;;;;;22.23;17.60;;;0.70;99.90;;;;;;5094255;28;20441;-77
2024/01/28 04:50:50;;;;;;;25.27;16.60;;;0.60;99.90;;;;;;5095467;28;20970;-77
2024/01/28 04:53:18;;;;;;;18.83;16.40;;;0.60;99.90;;;;;;5094119;28;20478;-76
2024/01/28 04:55:46;;;;;;;19.57;17.57;;;0.60;99.90;;;;;;5094142;28;20948;-76
2024/01/28 04:58:16;;;;;;;23.70;17.00;;;0.60;99.90;;;;;;5095368;28;20466;-77
2024/01/28 05:00:44;;;;;;;23.93;16.93;;;0.60;99.90;;;;;;5094057;28;20526;-77
2024/01/28 05:03:12;;;;;;;22.17;16.87;;;0.60;99.90;;;;;;5093913;28;20472;-77
2024/01/28 05:05:41;;;;;;;24.37;16.63;;;0.60;99.90;;;;;;5093928;28;20968;-77
2024/01/28 05:08:09;;;;;;;19.43;15.90;;;0.60;99.90;;;;;;5095143;28;20439;-77
2024/01/28 05:10:38;;;;;;;20.80;16.37;;;0.60;99.90;;;;;;5093784;28;20473;-77
2024/01/28 05:13:07;;;;;;;20.13;15.80;;;0.60;99.90;;;;;;5095058;28;20452;-77
2024/01/28 05:15:36;;;;;;;17.67;15.00;;;0.60;99.90;;;;;;5093713;28;20482;-77
2024/01/28 05:18:05;;;;;;;18.70;14.87;;;0.60;99.90;;;;;;5094978;28;20434;-77
2024/01/28 05:20:33;;;;;;;24.57;16.23;;;0.60;99.90;;;;;;5093677;28;20514;-77
2024/01/28 05:23:02;;;;;;;19.03;15.23;;;0.60;99.90;;;;;;5094841;28;20456;-76
2024/01/28 05:25:32;;;;;;;18.03;14.80;;;0.60;99.90;;;;;;5093422;28;20502;-77
2024/01/28 05:28:00;;;;;;;24.00;15.40;;;0.60;99.90;;;;;;5093847;28;20480;-77
2024/01/28 05:30:29;;;;;;;20.87;15.50;;;0.50;99.90;;;;;;5093336;28;20549;-77
2024/01/28 05:32:59;;;;;;;17.70;14.67;;;0.50;99.90;;;;;;5094555;28;20454;-77
2024/01/28 05:35:30;;;;;;;19.23;14.30;;;0.50;99.90;;;;;;5093346;28;20449;-76
2024/01/28 05:37:58;;;;;;;16.53;14.43;;;0.50;99.90;;;;;;5094909;28;20503;-77
2024/01/28 05:40:27;;;;;;;19.00;15.40;;;0.50;99.90;;;;;;5093236;28;20977;-77
2024/01/28 05:42:55;;;;;;;15.50;13.97;;;0.50;99.90;;;;;;5094454;28;20453;-77
2024/01/28 05:45:23;;;;;;;16.20;14.07;;;0.50;99.90;;;;;;5093597;28;20440;-76
2024/01/28 05:47:51;;;;;;;20.23;15.83;;;0.50;99.90;;;;;;5093720;28;20454;-77
2024/01/28 05:50:21;;;;;;;21.47;15.93;;;0.50;99.90;;;;;;5094687;28;20464;-77
2024/01/28 05:52:49;;;;;;;24.53;18.20;;;0.40;99.90;;;;;;5092990;28;20464;-77
2024/01/28 05:55:17;;;;;;;22.70;16.33;;;0.40;99.90;;;;;;5094725;28;20944;-76
2024/01/28 05:57:46;;;;;;;17.90;15.10;;;0.40;99.90;;;;;;5093240;28;20484;-76
2024/01/28 06:00:16;;;;;;;17.53;15.67;;;0.40;99.90;;;;;;5093053;28;20472;-76
2024/01/28 06:02:44;;;;;;;21.50;16.43;;;0.40;99.90;;;;;;5093245;28;21061;-76
2024/01/28 06:05:12;;;;;;;21.58;18.05;;;0.40;99.90;;;;;;5092176;28;20510;-76
2024/01/28 06:07:42;;;;;;;19.47;17.43;;;0.40;99.90;;;;;;5092994;28;20239;-76
2024/01/28 06:10:11;;;;;;;18.67;16.53;;;0.40;99.90;;;;;;5092771;28;20474;-76
2024/01/28 06:12:39;;;;;;;21.50;16.53;;;0.40;99.90;;;;;;5092683;28;20514;-76
2024/01/28 06:15:08;;;;;;;22.40;16.90;;;0.40;99.90;;;;;;5094011;28;20800;-76
2024/01/28 06:17:37;;;;;;;20.53;16.23;;;0.30;99.90;;;;;;5094150;28;20439;-76
2024/01/28 06:20:06;;;;;;;20.07;15.83;;;0.40;99.90;;;;;;5092715;28;20537;-76
2024/01/28 06:22:36;;;;;;;18.67;16.70;;;0.30;99.90;;;;;;5093844;28;20452;-75
2024/01/28 06:25:07;;;;;;;17.10;15.50;;;0.30;99.90;;;;;;5092557;28;20540;-76
2024/01/28 06:27:36;;;;;;;20.63;16.83;;;0.30;99.90;;;;;;5094041;28;20416;-76
2024/01/28 06:30:05;;;;;;;19.10;16.50;;;0.30;99.90;;;;;;5092432;28;20457;-76
2024/01/28 06:32:33;;;;;;;21.03;16.07;;;0.30;99.90;;;;;;5093581;28;21057;-76
2024/01/28 06:35:03;;;;;;;21.13;16.10;;;0.30;99.90;;;;;;5093649;28;20443;-76
2024/01/28 06:37:31;;;;;;;20.93;15.53;;;0.20;99.90;;;;;;5091870;28;20857;-76
2024/01/28 06:39:59;;;;;;;18.00;16.10;;;0.20;99.90;;;;;;5093532;28;20849;-76
2024/01/28 06:42:31;;;;;;;22.10;16.23;;;0.20;99.90;;;;;;5092271;28;20560;-76
2024/01/28 06:45:00;;;;;;;18.33;15.10;;;0.20;99.90;;;;;;5092289;28;20438;-76
2024/01/28 06:47:28;;;;;;;21.53;16.23;;;0.20;99.90;;;;;;5093461;28;20445;-76
2024/01/28 06:49:56;;;;;;;17.03;14.87;;;0.20;99.90;;;;;;5092146;28;20795;-76
2024/01/28 06:52:25;;;;;;;23.97;20.40;;;0.20;99.90;;;;;;5092112;28;20506;-76
2024/01/28 06:54:53;;;;;;;28.10;21.20;;;0.20;99.90;;;;;;5094077;28;20436;-76
2024/01/28 06:57:21;;;;;;;23.33;18.13;;;0.20;99.90;;;;;;5092847;28;20840;-76
2024/01/28 06:59:51;;;;;;;20.63;17.30;;;0.20;99.90;;;;;;5092156;28;20941;-76
2024/01/28 07:02:19;;;;;;;20.23;15.93;;;0.20;99.90;;;;;;5092044;28;20469;-76
2024/01/28 07:04:47;;;;;;;19.37;16.63;;;0.20;99.90;;;;;;5092158;28;20846;-76
2024/01/28 07:07:15;;;;;;;18.13;15.40;;;0.20;99.90;;;;;;5092903;28;20428;-76
2024/01/28 07:09:44;;;;;;;16.57;14.97;;;0.10;99.90;;;;;;5092984;28;20439;-76
2024/01/28 07:12:12;;;;;;;18.77;16.57;;;0.10;99.90;;;;;;5091798;28;20563;-76
2024/01/28 07:14:41;;;;;;;18.13;15.53;;;0.10;99.90;;;;;;5091891;28;20445;-76
2024/01/28 07:17:11;;;;;;;18.33;12.73;;;0.10;99.90;;;;;;5091935;28;20456;-76
2024/01/28 07:19:40;;;;;;;17.43;14.47;;;0.10;99.90;;;;;;5093243;28;20527;-76
2024/01/28 07:22:11;;;;;;;16.83;13.50;;;0.10;99.90;;;;;;5091775;28;20445;-76
2024/01/28 07:24:40;;;;;;;19.10;14.80;;;0.10;99.90;;;;;;5091870;28;20460;-76
2024/01/28 07:27:08;;;;;;;17.53;15.63;;;0.10;99.90;;;;;;5091881;28;20459;-76
2024/01/28 07:29:37;;;;;;;15.70;13.83;;;0.10;99.90;;;;;;5093112;28;20432;-76
2024/01/28 07:32:05;;;;;;;16.90;14.20;;;0.10;99.90;;;;;;5092923;28;21052;-76
2024/01/28 07:34:35;;;;;;;15.60;13.93;;;0.10;99.90;;;;;;5091738;28;20941;-76
2024/01/28 07:37:04;;;;;;;20.63;14.40;;;0.10;99.90;;;;;;5093669;28;20850;-76
2024/01/28 07:39:32;;;;;;;18.63;15.20;;;0.10;99.90;;;;;;5093054;28;20473;-76
2024/01/28 07:42:00;;;;;;;19.93;15.67;;;0.10;99.90;;;;;;5091672;28;20475;-76
2024/01/28 07:44:29;;;;;;;20.57;14.37;;;0.10;99.90;;;;;;5091684;28;20450;-76
2024/01/28 07:46:57;;;;;;;17.80;15.30;;;0.10;99.90;;;;;;5091479;28;20563;-76
2024/01/28 07:49:25;;;;;;;16.90;15.10;;;0.10;99.90;;;;;;5093857;28;20976;-76
2024/01/28 07:51:55;;;;;;;16.47;13.77;;;0.20;99.90;;;;;;5095394;28;20476;-76
2024/01/28 07:54:23;;;;;;;16.33;13.30;;;0.20;99.90;;;;;;5095474;28;20536;-76
2024/01/28 07:56:51;;;;;;;20.77;14.90;;;0.20;99.90;;;;;;5095489;28;20475;-76
2024/01/28 07:59:19;;;;;;;20.37;16.07;;;0.20;99.90;;;;;;5095387;28;20448;-76
2024/01/28 08:01:48;;;;;;;22.53;14.93;;;0.20;99.90;;;;;;5096847;28;20511;-76
2024/01/28 08:04:17;;;;;;;16.30;13.40;;;0.20;99.90;;;;;;5096962;28;20456;-76
2024/01/28 08:06:45;;;;;;;20.07;14.20;;;0.30;99.90;;;;;;5095325;28;20501;-76
2024/01/28 08:09:16;;;;;;;18.63;12.97;;;0.30;99.90;;;;;;5095284;28;20502;-76
2024/01/28 08:11:44;;;;;;;18.50;13.93;;;0.30;99.90;;;;;;5095119;28;20456;-77
2024/01/28 08:14:13;;;;;;;18.90;14.03;;;0.30;99.90;;;;;;5095165;28;20460;-77
2024/01/28 08:16:41;;;;;;;18.93;12.67;;;0.40;99.90;;;;;;5096611;28;20429;-76
2024/01/28 08:19:09;;;;;;;17.03;12.57;;;0.40;99.90;;;;;;5094970;28;20454;-76
2024/01/28 08:21:37;;;;;;;19.23;14.00;;;0.40;99.90;;;;;;5094968;28;20448;-76
2024/01/28 08:24:07;;;;;;;19.33;13.10;;;0.40;99.90;;;;;;5094878;28;20475;-77
2024/01/28 08:26:37;;;;;;;21.20;14.20;;;0.50;99.90;;;;;;5096467;28;20428;-77
2024/01/28 08:29:05;;;;;;;16.17;13.33;;;0.50;99.90;;;;;;5096187;28;20437;-77
2024/01/28 08:31:33;;;;;;;18.70;13.30;;;0.50;99.90;;;;;;5094699;28;20559;-76
2024/01/28 08:34:01;;;;;;;19.63;14.07;;;0.60;99.90;;;;;;5095990;28;20461;-77
2024/01/28 08:36:29;;;;;;;25.27;12.90;;;0.60;99.90;;;;;;5094721;28;20450;-76
2024/01/28 08:38:58;;;;;;;16.93;12.30;;;0.60;99.90;;;;;;5095907;28;20428;-76
2024/01/28 08:41:26;;;;;;;20.63;12.80;;;0.60;99.90;;;;;;5094620;28;20941;-76
2024/01/28 08:43:56;;;;;;;18.30;11.33;;;0.70;99.90;;;;;;5095714;28;20961;-76
2024/01/28 08:46:24;;;;;;;13.30;11.50;;;0.70;99.90;;;;;;5095059;28;20447;-76
2024/01/28 08:48:52;;;;;;;12.60;11.27;;;0.70;99.90;;;;;;5094509;28;20452;-76
2024/01/28 08:51:22;;;;;;;13.40;11.17;;;0.70;99.90;;;;;;5094314;28;20498;-76
2024/01/28 08:53:50;;;;;;;13.80;11.00;;;0.70;99.90;;;;;;5094526;28;20471;-76
2024/01/28 08:56:18;;;;;;;17.00;11.47;;;0.80;99.90;;;;;;5094275;28;20444;-76
2024/01/28 08:58:47;;;;;;;14.83;12.20;;;0.80;99.90;;;;;;5094287;28;20466;-76
2024/01/28 09:01:16;;;;;;;16.80;11.70;;;0.90;99.90;;;;;;5093692;28;20508;-77
2024/01/28 09:03:44;;;;;;;19.87;13.70;;;0.90;99.90;;;;;;5095506;28;20824;-76
2024/01/28 09:06:13;;;;;;;15.47;13.37;;;1.00;99.90;;;;;;5094407;28;20893;-76
2024/01/28 09:08:41;;;;;;;15.20;11.20;;;1.00;99.90;;;;;;5094017;28;20458;-76
2024/01/28 09:11:10;;;;;;;16.67;11.60;;;1.00;99.90;;;;;;5094466;28;20452;-77
2024/01/28 09:13:38;;;;;;;16.70;9.87;;;1.10;99.90;;;;;;5094421;28;20525;-77
2024/01/28 09:16:07;;;;;;;14.10;11.00;;;1.10;99.90;;;;;;5093888;28;20543;-77
2024/01/28 09:18:37;;;;;;;17.40;12.03;;;1.20;99.90;;;;;;5095330;28;20465;-77
2024/01/28 09:21:06;;;;;;;16.67;11.57;;;1.20;99.90;;;;;;5093946;28;20439;-77
2024/01/28 09:23:34;;;;;;;14.13;10.47;;;1.30;99.90;;;;;;5095126;28;20457;-76
2024/01/28 09:26:02;;;;;;;14.77;10.90;;;1.30;99.90;;;;;;5093842;28;20446;-77
2024/01/28 09:28:31;;;;;;;17.33;10.20;;;1.40;99.90;;;;;;5093748;28;20948;-77
2024/01/28 09:30:59;;;;;;;15.70;10.43;;;1.50;99.90;;;;;;5093527;28;20480;-77
2024/01/28 09:33:27;;;;;;;13.60;9.70;;;1.50;99.90;;;;;;5093472;28;21003;-77
2024/01/28 09:35:58;;;;;;;13.13;9.43;;;1.60;99.90;;;;;;5095147;28;20428;-77
2024/01/28 09:38:26;;;;;;;13.93;9.30;;;1.60;99.90;;;;;;5095308;28;20428;-77
2024/01/28 09:40:55;;;;;;;10.47;8.50;;;1.70;99.90;;;;;;5093412;28;20445;-76
2024/01/28 09:43:29;;;;;;;13.97;9.20;;;1.70;99.90;;;;;;5093401;28;20529;-76
2024/01/28 09:45:58;;;;;;;15.10;9.43;;;1.80;99.90;;;;;;5095049;28;20411;-77
2024/01/28 09:48:27;;;;;;;14.13;9.37;;;1.80;99.90;;;;;;5093358;28;20941;-77
2024/01/28 09:50:58;;;;;;;13.77;9.20;;;1.90;99.90;;;;;;5094564;28;20432;-77
2024/01/28 09:53:26;;;;;;;11.70;8.67;;;1.90;99.90;;;;;;5094635;28;20475;-77
2024/01/28 09:55:54;;;;;;;13.30;9.20;;;2.00;99.90;;;;;;5093253;28;20496;-77
2024/01/28 09:58:23;;;;;;;12.77;9.37;;;2.10;99.90;;;;;;5093017;28;20445;-77
2024/01/28 10:00:51;;;;;;;17.63;11.30;;;2.10;99.90;;;;;;5094250;28;20439;-77
2024/01/28 10:03:21;;;;;;;16.13;12.53;;;2.10;99.90;;;;;;5092950;28;20464;-76
2024/01/28 10:05:49;;;;;;;15.27;10.20;;;2.20;99.90;;;;;;5093021;28;20444;-76
2024/01/28 10:08:19;;;;;;;10.50;8.73;;;2.30;99.90;;;;;;5092917;28;20530;-76
2024/01/28 10:10:47;;;;;;;10.07;8.50;;;2.30;99.90;;;;;;5093646;28;20466;-76
2024/01/28 10:13:16;;;;;;;12.63;9.07;;;2.40;99.90;;;;;;5091917;28;20571;-77
2024/01/28 10:15:54;;;;;;;15.97;10.17;;;2.50;99.90;;;;;;5092702;28;20458;-77
2024/01/28 10:18:23;;;;;;;15.90;9.43;;;2.50;99.90;;;;;;5093969;28;20416;-77
2024/01/28 10:20:52;;;;;;;11.03;8.33;;;2.60;99.90;;;;;;5092684;28;20447;-76
2024/01/28 10:23:22;;;;;;;13.50;9.03;;;2.60;99.90;;;;;;5092701;28;20495;-76
2024/01/28 10:25:50;;;;;;;10.80;8.07;;;2.70;99.90;;;;;;5092482;28;20448;-76
2024/01/28 10:28:18;;;;;;;14.20;9.40;;;2.70;99.90;;;;;;5092807;28;20459;-76
2024/01/28 10:30:49;;;;;;;13.87;8.97;;;2.80;99.90;;;;;;5093729;28;20460;-76
2024/01/28 10:33:17;;;;;;;13.80;8.30;;;2.90;99.90;;;;;;5092298;28;20476;-76
2024/01/28 10:35:47;;;;;;;13.50;8.90;;;2.90;99.90;;;;;;5093006;28;20964;-76
2024/01/28 10:38:19;;;;;;;13.03;8.77;;;3.00;99.90;;;;;;5093657;28;20436;-76
2024/01/28 10:40:51;;;;;;;11.97;8.37;;;3.10;99.90;;;;;;5092400;28;20440;-76
2024/01/28 10:43:26;;;;;;;13.40;7.80;;;3.10;99.90;;;;;;5092239;28;20550;-76
2024/01/28 10:45:56;;;;;;;12.00;8.40;;;3.10;99.90;;;;;;5092210;28;20497;-76
2024/01/28 10:48:25;;;;;;;9.93;8.53;;;3.20;99.90;;;;;;5093771;28;20448;-76
2024/01/28 10:50:55;;;;;;;10.60;7.97;;;3.20;99.90;;;;;;5092186;28;20534;-77
2024/01/28 10:53:26;;;;;;;10.90;8.60;;;3.30;99.90;;;;;;5093502;28;20530;-76
2024/01/28 10:55:56;;;;;;;11.00;7.23;;;3.30;99.90;;;;;;5092332;28;20500;-77
2024/01/28 10:58:24;;;;;;;13.00;6.83;;;3.40;99.90;;;;;;5092127;28;20440;-76
2024/01/28 11:00:53;;;;;;;8.33;7.17;;;3.40;99.90;;;;;;5092116;28;20452;-76
2024/01/28 11:03:22;;;;;;;8.80;6.63;;;3.50;99.90;;;;;;5092046;28;20555;-77
2024/01/28 11:05:50;;;;;;;11.10;7.60;;;3.50;99.90;;;;;;5092008;28;20448;-76
2024/01/28 11:08:20;;;;;;;9.10;6.50;;;3.60;99.90;;;;;;5092019;28;20451;-76
2024/01/28 11:10:49;;;;;;;12.83;7.07;;;3.60;99.90;;;;;;5091989;28;20903;-76
2024/01/28 11:13:18;;;;;;;11.77;7.70;;;3.70;99.90;;;;;;5093110;28;20491;-76
2024/01/28 11:15:47;;;;;;;8.93;7.27;;;3.80;99.90;;;;;;5091979;28;20505;-76
2024/01/28 11:18:16;;;;;;;14.73;7.93;;;3.90;99.90;;;;;;5091963;28;20937;-76
2024/01/28 11:20:45;;;;;;;10.80;7.10;;;3.90;99.90;;;;;;5091894;28;20550;-76
2024/01/28 11:23:17;;;;;;;11.00;7.57;;;3.90;99.90;;;;;;5092459;28;20464;-77
2024/01/28 11:25:46;;;;;;;9.70;7.00;;;4.00;99.90;;;;;;5096254;28;20428;-76
2024/01/28 11:28:16;;;;;;;10.60;7.03;;;4.10;99.90;;;;;;5096635;28;20470;-77
2024/01/28 11:30:52;;;;;;;9.37;5.90;;;4.20;99.90;;;;;;5096363;28;20497;-77
2024/01/28 11:33:20;;;;;;;8.30;6.50;;;4.20;99.90;;;;;;5097153;28;20467;-77
2024/01/28 11:35:49;;;;;;;11.13;7.23;;;4.30;99.90;;;;;;5095959;28;20509;-77
2024/01/28 11:38:21;;;;;;;10.30;6.80;;;4.30;99.90;;;;;;5095891;28;20451;-77
2024/01/28 11:40:56;;;;;;;8.83;7.20;;;4.40;99.90;;;;;;5097432;28;20419;-77
2024/01/28 11:43:24;;;;;;;10.77;6.77;;;4.40;99.90;;;;;;5095941;28;20520;-77
2024/01/28 11:45:56;;;;;;;11.70;6.93;;;4.50;99.90;;;;;;5095847;28;20542;-77
2024/01/28 11:48:25;;;;;;;8.20;6.60;;;4.60;99.90;;;;;;5096085;28;20480;-77
2024/01/28 11:50:53;;;;;;;9.37;6.80;;;4.50;99.90;;;;;;5095897;28;20441;-77
2024/01/28 11:53:22;;;;;;;9.33;6.30;;;4.60;99.90;;;;;;5096909;28;20516;-77
2024/01/28 11:55:51;;;;;;;8.50;6.00;;;4.60;99.90;;;;;;5096795;28;20428;-77
2024/01/28 11:58:20;;;;;;;10.90;6.33;;;4.70;99.90;;;;;;5095509;28;20448;-77
2024/01/28 12:00:50;;;;;;;7.50;5.90;;;4.80;99.90;;;;;;5095438;28;20441;-77
2024/01/28 12:03:20;;;;;;;9.90;6.80;;;4.80;99.90;;;;;;5095284;28;20474;-77
2024/01/28 12:05:49;;;;;;;10.43;6.30;;;4.80;99.90;;;;;;5095893;28;20436;-77
2024/01/28 12:08:26;;;;;;;12.50;6.67;;;4.90;99.90;;;;;;5095219;28;20448;-77
2024/01/28 12:10:58;;;;;;;7.60;5.10;;;5.00;99.90;;;;;;5095323;28;20451;-77
2024/01/28 12:13:27;;;;;;;8.13;6.13;;;5.00;99.90;;;;;;5095114;28;20471;-77
2024/01/28 12:15:57;;;;;;;9.10;4.97;;;5.00;99.90;;;;;;5095319;28;20441;-76
2024/01/28 12:18:32;;;;;;;7.00;4.70;;;5.10;99.90;;;;;;5095240;28;20811;-77
2024/01/28 12:21:01;;;;;;;7.87;5.50;;;5.20;99.90;;;;;;5095057;28;20851;-77
2024/01/28 12:23:31;;;;;;;8.60;5.57;;;5.20;99.90;;;;;;5094887;28;20981;-76
2024/01/28 12:25:59;;;;;;;6.03;4.87;;;5.20;99.90;;;;;;5094948;28;20585;-77
2024/01/28 12:28:27;;;;;;;6.70;4.77;;;5.30;99.90;;;;;;5094873;28;20448;-77
2024/01/28 12:30:56;;;;;;;6.97;4.47;;;5.30;99.90;;;;;;5095982;28;20932;-77
2024/01/28 12:33:24;;;;;;;6.37;4.53;;;5.40;99.90;;;;;;5094585;28;21014;-76
2024/01/28 12:35:54;;;;;;;7.60;4.10;;;5.40;99.90;;;;;;5093856;28;20505;-77
2024/01/28 12:38:22;;;;;;;9.10;4.50;;;5.50;99.90;;;;;;5094752;28;20449;-76
2024/01/28 12:40:51;;;;;;;14.63;8.00;;;5.50;99.90;;;;;;5095854;28;20519;-77
2024/01/28 12:43:19;;;;;;;8.30;4.93;;;5.60;99.90;;;;;;5094780;28;20887;-76
2024/01/28 12:45:48;;;;;;;7.50;4.30;;;5.60;99.90;;;;;;5095974;28;20438;-77
2024/01/28 12:48:17;;;;;;;6.50;4.67;;;5.70;99.90;;;;;;5095938;28;20436;-76